Bookmark and Share
Track history (hours):
 

Nyk Olympus

Last reported at 2014-Apr-08 06:06 UTC. Time now 2014-Apr-18 16:08 UTC.
Position N 36°26' E 014°09'.
Warning: this ship's position is 10 days out of date.

Length 335 m; draft 13.9 m.

Type: Other ship. MMSI: 372478000.

NotesDate/timePositionNaut miles runAvg speedWind from/ knotsBaromVisibWave heightAir tempDewpointWater temp
2014-Apr-08 06:06N 36°26' E 014°09'917.1
2014-Apr-08 05:33N 36°28' E 013°57'1717.4
2014-Apr-08 04:33N 36°34' E 013°37'1817.7
2014-Apr-08 03:33N 36°40' E 013°16'1817.6
2014-Apr-08 02:33N 36°45' E 012°55'1817.0
2014-Apr-08 01:29N 36°51' E 012°34'2117.2
2014-Apr-08 00:15N 36°58' E 012°09'1217.3
2014-Apr-07 23:33N 37°02' E 011°54'1717.2
2014-Apr-07 22:33N 37°11' E 011°36'1717.3
2014-Apr-07 21:33N 37°20' E 011°18'1717.5
2014-Apr-07 20:33N 37°25' E 010°57'1818.0
2014-Apr-07 19:33N 37°31' E 010°35'3918.4
2014-Apr-07 17:28N 37°30' E 009°47'1718.6
2014-Apr-07 16:33N 37°27' E 009°26'1918.2
2014-Apr-07 15:32N 37°22' E 009°03'2018.0
2014-Apr-07 14:25N 37°18' E 008°38'2017.9
2014-Apr-07 13:18N 37°18' E 008°13'26018.6
2014-Apr-06 23:18N 36°60' E 002°48'1520.1
2014-Apr-06 22:33N 36°56' E 002°30'36818.4
2014-Apr-06 02:33N 35°59' W 005°03'2120.8
2014-Apr-06 01:33N 35°57' W 005°28'1716.7
2014-Apr-06 00:33N 35°55' W 005°49'1818.3
2014-Apr-05 23:33N 35°54' W 006°11'20715.8
2014-Apr-05 10:28N 37°45' W 009°49'1617.6
2014-Apr-05 09:33N 38°01' W 009°54'2218.0
2014-Apr-05 08:19N 38°23' W 010°00'3717.2
2014-Apr-05 06:08N 38°59' W 010°08'78415.4
2014-Apr-03 03:20N 50°25' W 001°12'1416.5
2014-Apr-03 02:30N 50°35' W 000°57'9 9.4
2014-Apr-03 01:33N 50°44' W 001°02'1110.8
2014-Apr-03 00:34N 50°48' W 001°18'8 7.7
2014-Apr-02 23:34N 50°54' W 001°26'1 0.5
2014-Apr-02 22:27N 50°54' W 001°27'0 0.0
2014-Apr-02 21:33N 50°54' W 001°27'0 0.0
2014-Apr-02 20:33N 50°54' W 001°27'0 0.0
2014-Apr-02 19:33N 50°54' W 001°27'0 0.0
2014-Apr-02 18:32N 50°54' W 001°27'0 0.0
2014-Apr-02 17:33N 50°54' W 001°27'0 0.0
2014-Apr-02 16:32N 50°54' W 001°27'0 0.0
2014-Apr-02 15:30N 50°54' W 001°27'0 0.0
2014-Apr-02 14:33N 50°54' W 001°27'0 0.0
2014-Apr-02 13:32N 50°54' W 001°27'0 0.0
2014-Apr-02 12:33N 50°54' W 001°27'0 0.0
2014-Apr-02 11:32N 50°54' W 001°27'0 0.0
2014-Apr-02 10:27N 50°54' W 001°27'0 0.0
2014-Apr-02 09:32N 50°54' W 001°27'0 0.0
2014-Apr-02 08:32N 50°54' W 001°27'0 0.0
2014-Apr-02 07:32N 50°54' W 001°27'0 0.0
2014-Apr-02 06:32N 50°54' W 001°27'0 0.0
2014-Apr-02 05:33N 50°54' W 001°27'0 0.0
2014-Apr-02 04:33N 50°54' W 001°27'0 0.0
2014-Apr-02 03:33N 50°54' W 001°27'0 0.1
2014-Apr-02 02:33N 50°54' W 001°27'6 6.4
2014-Apr-02 01:33N 50°50' W 001°19'9 8.6
2014-Apr-02 00:34N 50°46' W 001°07'1010.1
2014-Apr-01 23:33N 50°37' W 000°58'3 3.1
2014-Apr-01 22:32N 50°35' W 001°02'0 0.0
2014-Apr-01 21:32N 50°35' W 001°02'0 0.0
2014-Apr-01 20:33N 50°35' W 001°02'0 0.0
2014-Apr-01 19:32N 50°35' W 001°02'0 0.3
2014-Apr-01 18:32N 50°35' W 001°02'0 0.1
2014-Apr-01 17:32N 50°35' W 001°02'0 0.0
2014-Apr-01 16:32N 50°35' W 001°02'0 0.0
2014-Apr-01 15:32N 50°35' W 001°02'0 0.0
2014-Apr-01 14:32N 50°35' W 001°02'0 0.0
2014-Apr-01 13:32N 50°35' W 001°02'0 0.0
2014-Apr-01 12:32N 50°35' W 001°02'0 0.3
2014-Apr-01 11:32N 50°35' W 001°02'0 0.0
2014-Apr-01 10:32N 50°35' W 001°02'0 0.0
2014-Apr-01 09:32N 50°35' W 001°02'0 0.0
2014-Apr-01 08:32N 50°35' W 001°02'0 0.0
2014-Apr-01 07:32N 50°35' W 001°02'0 0.1
2014-Apr-01 06:32N 50°35' W 001°02'0 0.4
2014-Apr-01 05:32N 50°35' W 001°02'0 0.0
2014-Apr-01 04:32N 50°35' W 001°02'0 0.0
2014-Apr-01 03:32N 50°35' W 001°02'0 0.0
2014-Apr-01 02:32N 50°35' W 001°02'0 0.0
2014-Apr-01 01:32N 50°35' W 001°02'0 0.0
2014-Apr-01 00:33N 50°35' W 001°02'0 0.3
2014-Mar-31 23:32N 50°35' W 001°02'0 0.1
2014-Mar-31 22:33N 50°35' W 001°02'3 3.2
2014-Mar-31 21:33N 50°33' W 000°57'1212.0
2014-Mar-31 20:33N 50°23' W 000°49'1312.5
2014-Mar-31 19:33N 50°11' W 000°41'2713.3
2014-Mar-31 17:33N 49°46' W 000°26'1414.6
2014-Mar-31 16:34N 49°34' W 000°15'1212.3
2014-Mar-31 15:33N 49°30' E 000°03'4 4.3
2014-Mar-31 14:31N 49°28' E 000°09'0 0.0
2014-Mar-31 13:31N 49°28' E 000°09'0 0.0
2014-Mar-31 12:31N 49°28' E 000°09'0 0.0
2014-Mar-31 11:31N 49°28' E 000°09'0 0.0
2014-Mar-31 10:31N 49°28' E 000°09'0 0.0
2014-Mar-31 09:31N 49°28' E 000°09'0 0.0
2014-Mar-31 08:31N 49°28' E 000°09'0 0.0
2014-Mar-31 07:31N 49°28' E 000°09'0 0.0
2014-Mar-31 06:31N 49°28' E 000°09'0 0.0
2014-Mar-31 05:31N 49°28' E 000°09'0 0.0
2014-Mar-31 04:31N 49°28' E 000°09'0 0.0
2014-Mar-31 03:31N 49°28' E 000°09'0 0.0
2014-Mar-31 02:31N 49°28' E 000°09'0 0.0
2014-Mar-31 01:31N 49°28' E 000°09'0 0.0
2014-Mar-31 00:31N 49°28' E 000°09'0 0.0
2014-Mar-30 23:31N 49°28' E 000°09'0 0.0
2014-Mar-30 22:31N 49°28' E 000°09'0 0.0
2014-Mar-30 21:31N 49°28' E 000°09'0 0.0
2014-Mar-30 20:31N 49°28' E 000°09'0 0.0
2014-Mar-30 19:31N 49°28' E 000°09'0 0.0
2014-Mar-30 18:31N 49°28' E 000°09'0 0.0
2014-Mar-30 17:31N 49°28' E 000°09'0 0.0
2014-Mar-30 16:31N 49°28' E 000°09'0 0.0
2014-Mar-30 15:31N 49°28' E 000°09'0 0.0
2014-Mar-30 14:31N 49°28' E 000°09'0 0.0
2014-Mar-30 13:28N 49°28' E 000°09'0 0.0
2014-Mar-30 12:31N 49°28' E 000°09'0 0.0
2014-Mar-30 11:31N 49°28' E 000°09'0 0.0
2014-Mar-30 10:31N 49°28' E 000°09'0 0.0
2014-Mar-30 09:31N 49°28' E 000°09'0 0.0
2014-Mar-30 08:31N 49°28' E 000°09'0 0.0
2014-Mar-30 07:31N 49°28' E 000°09'0 0.0
2014-Mar-30 06:28N 49°28' E 000°09'0 0.0
2014-Mar-30 05:31N 49°28' E 000°09'0 0.0
2014-Mar-30 04:31N 49°28' E 000°09'0 0.0
2014-Mar-30 03:33N 49°28' E 000°09'7 6.6
2014-Mar-30 02:33N 49°30' W 000°00'9 8.9
2014-Mar-30 01:33N 49°37' W 000°08'1515.2
2014-Mar-30 00:33N 49°50' E 000°04'2019.9
2014-Mar-29 23:33N 50°06' E 000°23'2218.4
2014-Mar-29 22:21N 50°26' E 000°39'1316.8
2014-Mar-29 21:33N 50°39' E 000°43'1918.6
2014-Mar-29 20:33N 50°49' E 001°07'2120.9
2014-Mar-29 19:33N 51°04' E 001°32'2322.8
2014-Mar-29 18:33N 51°21' E 001°54'2221.4
2014-Mar-29 17:33N 51°39' E 002°14'2320.1
2014-Mar-29 16:25N 51°57' E 002°37'1819.1
2014-Mar-29 15:27N 52°10' E 002°58'1818.4
2014-Mar-29 14:30N 52°24' E 003°14'1718.1
2014-Mar-29 13:33N 52°38' E 003°31'1818.2
2014-Mar-29 12:33N 52°52' E 003°51'2019.6
2014-Mar-29 11:33N 53°05' E 004°15'2019.8
2014-Mar-29 10:33N 53°21' E 004°34'1919.6
2014-Mar-29 09:33N 53°34' E 004°58'2019.6
2014-Mar-29 08:33N 53°40' E 005°30'1919.0
2014-Mar-29 07:34N 53°46' E 006°00'  

Dump ship's entire track history

sailing weather and tide predictions

Nyk Olympus — 3EOS7 — position and weather